Time;durP1;ratioP1;P1;durP2;ratioP2;P2;SDS_P1;SDS_P2;PMS_P1;PMS_P2;Temp;Humidity;BMP_temperature;BMP_pressure;BME280_temperature;BME280_humidity;BME280_pressure;Samples;Min_cycle;Max_cycle;Signal;HPM_P1;HPM_P2
2022/09/28 00:00:22;;;;;;;60.15;45.45;;;;;;;;;;1706852;82;26309;-47
2022/09/28 00:02:50;;;;;;;66.00;47.93;;;;;;;;;;1707731;83;26338;-45
2022/09/28 00:05:17;;;;;;;64.30;48.52;;;;;;;;;;1701251;83;26316;-45
2022/09/28 00:07:45;;;;;;;66.60;48.55;;;;;;;;;;1709130;82;26306;-50
2022/09/28 00:10:13;;;;;;;72.60;51.50;;;;;;;;;;1708363;83;26315;-49
2022/09/28 00:12:40;;;;;;;72.47;52.98;;;;;;;;;;1717168;82;26416;-47
2022/09/28 00:15:08;;;;;;;76.00;55.35;;;;;;;;;;1711967;83;26310;-50
2022/09/28 00:17:35;;;;;;;81.10;58.30;;;;;;;;;;1706605;83;26308;-46
2022/09/28 00:20:04;;;;;;;83.27;59.53;;;;;;;;;;1705499;82;26356;-44
2022/09/28 00:22:31;;;;;;;83.75;60.20;;;;;;;;;;1704043;83;26351;-54
2022/09/28 00:24:58;;;;;;;91.37;64.47;;;;;;;;;;1707710;82;26289;-50
2022/09/28 00:27:26;;;;;;;92.33;64.25;;;;;;;;;;1702577;83;26303;-47
2022/09/28 00:29:53;;;;;;;94.03;67.97;;;;;;;;;;1706005;83;26753;-44
2022/09/28 00:32:23;;;;;;;95.67;67.60;;;;;;;;;;1711173;83;26298;-44
2022/09/28 00:34:51;;;;;;;95.55;69.65;;;;;;;;;;1709120;83;26405;-49
2022/09/28 00:37:19;;;;;;;100.15;71.45;;;;;;;;;;1710993;82;26773;-47
2022/09/28 00:39:47;;;;;;;104.60;74.27;;;;;;;;;;1702661;83;26299;-44
2022/09/28 00:42:16;;;;;;;108.25;75.42;;;;;;;;;;1708627;83;26305;-53
2022/09/28 00:44:54;;;;;;;109.83;77.40;;;;;;;;;;1714375;83;26411;-45
2022/09/28 00:47:26;;;;;;;109.30;77.78;;;;;;;;;;1728016;83;26379;-45
2022/09/28 00:49:55;;;;;;;112.55;79.15;;;;;;;;;;1713468;82;26366;-48
2022/09/28 00:52:26;;;;;;;111.70;80.97;;;;;;;;;;1715269;81;26248;-47
2022/09/28 00:54:54;;;;;;;115.37;83.07;;;;;;;;;;1725815;82;26371;-50
2022/09/28 00:57:22;;;;;;;112.05;83.67;;;;;;;;;;1721164;81;26311;-50
2022/09/28 00:59:50;;;;;;;121.15;86.35;;;;;;;;;;1715419;83;26257;-49
2022/09/28 01:02:18;;;;;;;120.25;87.35;;;;;;;;;;1713893;81;26701;-41
2022/09/28 01:04:46;;;;;;;124.18;87.40;;;;;;;;;;1716233;82;26383;-49
2022/09/28 01:07:16;;;;;;;127.53;90.92;;;;;;;;;;1726069;82;26792;-47
2022/09/28 01:09:44;;;;;;;126.38;89.67;;;;;;;;;;1705684;83;26750;-43
2022/09/28 01:12:12;;;;;;;125.40;91.00;;;;;;;;;;1723514;81;26293;-44
2022/09/28 01:14:40;;;;;;;127.15;91.75;;;;;;;;;;1727595;83;26297;-45
2022/09/28 01:17:08;;;;;;;132.95;92.97;;;;;;;;;;1714162;83;26299;-43
2022/09/28 01:19:54;;;;;;;135.95;95.42;;;;;;;;;;1713588;83;26303;-47
2022/09/28 01:22:35;;;;;;;133.32;96.12;;;;;;;;;;1705538;82;26818;-44
2022/09/28 01:25:07;;;;;;;137.10;96.75;;;;;;;;;;1714443;82;26377;-43
2022/09/28 01:27:36;;;;;;;141.28;98.82;;;;;;;;;;1706420;83;26330;-45
2022/09/28 01:30:07;;;;;;;139.30;99.28;;;;;;;;;;1703031;83;26291;-42
2022/09/28 01:32:36;;;;;;;137.25;98.90;;;;;;;;;;1707639;83;26385;-51
2022/09/28 01:35:05;;;;;;;139.92;99.58;;;;;;;;;;1710139;83;26395;-41
2022/09/28 01:37:37;;;;;;;146.32;103.87;;;;;;;;;;1714390;82;26366;-46
2022/09/28 01:40:06;;;;;;;143.22;103.78;;;;;;;;;;1705878;82;26755;-48
2022/09/28 01:42:35;;;;;;;151.70;106.43;;;;;;;;;;1714611;82;26244;-44
2022/09/28 01:45:03;;;;;;;149.55;106.55;;;;;;;;;;1698539;83;26306;-46
2022/09/28 01:47:32;;;;;;;153.85;107.90;;;;;;;;;;1707149;83;26319;-45
2022/09/28 01:50:07;;;;;;;144.57;105.87;;;;;;;;;;1697751;83;26435;-44
2022/09/28 01:52:39;;;;;;;148.65;108.25;;;;;;;;;;1705210;83;26323;-45
2022/09/28 01:55:12;;;;;;;150.75;106.92;;;;;;;;;;1709929;83;26801;-43
2022/09/28 01:57:41;;;;;;;151.35;107.43;;;;;;;;;;1718223;82;26761;-43
2022/09/28 02:00:10;;;;;;;152.75;109.50;;;;;;;;;;1716072;82;26302;-48
2022/09/28 02:02:39;;;;;;;151.18;109.75;;;;;;;;;;1710647;83;26311;-45
2022/09/28 02:05:14;;;;;;;151.45;110.55;;;;;;;;;;1696392;83;26355;-47
2022/09/28 02:07:44;;;;;;;152.20;108.32;;;;;;;;;;1710821;82;26315;-49
2022/09/28 02:10:15;;;;;;;158.60;111.85;;;;;;;;;;1700940;83;26306;-44
2022/09/28 02:12:47;;;;;;;155.43;110.85;;;;;;;;;;1714472;82;26281;-47
2022/09/28 02:15:16;;;;;;;156.93;110.40;;;;;;;;;;1714918;83;26341;-46
2022/09/28 02:17:44;;;;;;;157.50;113.32;;;;;;;;;;1705940;83;26248;-43
2022/09/28 02:20:11;;;;;;;157.32;112.83;;;;;;;;;;1703407;82;26344;-46
2022/09/28 02:22:41;;;;;;;154.38;111.15;;;;;;;;;;1701716;83;26296;-48
2022/09/28 02:25:11;;;;;;;156.28;114.82;;;;;;;;;;1705816;83;26298;-43
2022/09/28 02:27:42;;;;;;;157.65;114.35;;;;;;;;;;1702339;83;26800;-45
2022/09/28 02:30:10;;;;;;;157.10;114.82;;;;;;;;;;1707942;83;26353;-45
2022/09/28 02:32:39;;;;;;;160.35;114.28;;;;;;;;;;1703906;82;26315;-44
2022/09/28 02:35:08;;;;;;;159.70;115.37;;;;;;;;;;1711910;82;26313;-44
2022/09/28 02:37:35;;;;;;;161.20;115.40;;;;;;;;;;1714662;82;26231;-45
2022/09/28 02:40:03;;;;;;;162.35;115.75;;;;;;;;;;1716259;82;26419;-43
2022/09/28 02:42:32;;;;;;;159.43;113.72;;;;;;;;;;1714544;83;26317;-53
2022/09/28 02:45:07;;;;;;;158.63;113.77;;;;;;;;;;1723700;82;26320;-45
2022/09/28 02:47:45;;;;;;;167.50;117.57;;;;;;;;;;1721193;82;26377;-48
2022/09/28 02:50:17;;;;;;;165.77;117.30;;;;;;;;;;1715438;82;26279;-45
2022/09/28 02:53:02;;;;;;;165.52;120.40;;;;;;;;;;1731770;81;26344;-45
2022/09/28 02:55:34;;;;;;;164.37;117.42;;;;;;;;;;1742363;82;26347;-43
2022/09/28 02:58:19;;;;;;;170.28;119.05;;;;;;;;;;1736590;82;26358;-42
2022/09/28 03:00:48;;;;;;;165.00;117.70;;;;;;;;;;1734824;82;26253;-47
2022/09/28 03:03:17;;;;;;;163.80;117.67;;;;;;;;;;1736983;82;26366;-51
2022/09/28 03:05:46;;;;;;;166.82;120.97;;;;;;;;;;1741913;82;26300;-48
2022/09/28 03:08:21;;;;;;;167.22;119.75;;;;;;;;;;1749608;82;26278;-51
2022/09/28 03:10:50;;;;;;;161.75;118.33;;;;;;;;;;1726859;81;26313;-51
2022/09/28 03:13:17;;;;;;;168.02;120.95;;;;;;;;;;1736222;82;26316;-46
2022/09/28 03:15:44;;;;;;;164.10;118.93;;;;;;;;;;1736624;82;26356;-48
2022/09/28 03:18:12;;;;;;;168.78;121.90;;;;;;;;;;1719679;81;26779;-45
2022/09/28 03:20:39;;;;;;;165.97;120.35;;;;;;;;;;1713025;82;26379;-47
2022/09/28 03:23:06;;;;;;;167.28;121.85;;;;;;;;;;1720224;82;26397;-43
2022/09/28 03:25:34;;;;;;;167.95;122.33;;;;;;;;;;1704189;83;26295;-53
2022/09/28 03:28:01;;;;;;;174.77;124.85;;;;;;;;;;1707092;83;26295;-46
2022/09/28 03:30:29;;;;;;;173.00;125.82;;;;;;;;;;1716531;83;26359;-44
2022/09/28 03:32:57;;;;;;;173.40;124.30;;;;;;;;;;1725394;83;26351;-42
2022/09/28 03:35:24;;;;;;;168.57;120.65;;;;;;;;;;1714103;83;27171;-43
2022/09/28 03:37:57;;;;;;;171.35;124.02;;;;;;;;;;1710715;81;26353;-48
2022/09/28 03:40:25;;;;;;;167.30;122.13;;;;;;;;;;1705711;82;26239;-48
2022/09/28 03:42:52;;;;;;;173.25;125.85;;;;;;;;;;1709822;82;26377;-51
2022/09/28 03:45:20;;;;;;;172.20;124.72;;;;;;;;;;1724219;81;26394;-46
2022/09/28 03:47:47;;;;;;;170.53;122.85;;;;;;;;;;1715296;82;26288;-45
2022/09/28 03:50:15;;;;;;;177.07;126.33;;;;;;;;;;1714291;83;26757;-46
2022/09/28 03:52:42;;;;;;;174.27;123.45;;;;;;;;;;1707874;83;26381;-48
2022/09/28 03:55:10;;;;;;;175.82;125.15;;;;;;;;;;1711723;83;27302;-44
2022/09/28 03:57:37;;;;;;;175.55;126.45;;;;;;;;;;1719638;81;26299;-47
2022/09/28 04:00:05;;;;;;;171.82;124.53;;;;;;;;;;1721715;82;26285;-45
2022/09/28 04:02:33;;;;;;;175.55;125.82;;;;;;;;;;1720387;81;26299;-51
2022/09/28 04:05:01;;;;;;;180.87;127.75;;;;;;;;;;1716119;82;26443;-50
2022/09/28 04:07:28;;;;;;;174.07;126.15;;;;;;;;;;1717105;82;26791;-42
2022/09/28 04:09:55;;;;;;;175.45;126.58;;;;;;;;;;1707584;82;26772;-51
2022/09/28 04:12:22;;;;;;;177.05;126.82;;;;;;;;;;1712179;82;26355;-45
2022/09/28 04:14:50;;;;;;;170.57;125.65;;;;;;;;;;1726985;82;26288;-49
2022/09/28 04:17:17;;;;;;;181.43;127.78;;;;;;;;;;1725243;82;26368;-42
2022/09/28 04:19:45;;;;;;;178.72;128.15;;;;;;;;;;1730283;82;26273;-48
2022/09/28 04:22:13;;;;;;;179.20;129.55;;;;;;;;;;1723971;83;27571;-51
2022/09/28 04:24:42;;;;;;;180.37;128.12;;;;;;;;;;1727463;82;26308;-52
2022/09/28 04:29:54;;;;;;;195.72;142.30;;;;;;;;;;1727910;83;26376;-52
2022/09/28 04:32:22;;;;;;;212.15;152.12;;;;;;;;;;1723286;81;26298;-44
2022/09/28 04:34:50;;;;;;;219.03;155.37;;;;;;;;;;1727047;83;26752;-46
2022/09/28 04:37:18;;;;;;;233.65;164.82;;;;;;;;;;1727853;82;26297;-48
2022/09/28 04:39:45;;;;;;;240.60;171.90;;;;;;;;;;1727346;81;26319;-52
2022/09/28 04:42:12;;;;;;;244.57;175.18;;;;;;;;;;1727075;83;26309;-49
2022/09/28 04:44:39;;;;;;;247.12;173.97;;;;;;;;;;1726751;81;26273;-50
2022/09/28 04:47:07;;;;;;;245.07;175.15;;;;;;;;;;1726393;81;26434;-46
2022/09/28 04:49:37;;;;;;;239.55;171.37;;;;;;;;;;1728777;82;26280;-46
2022/09/28 04:52:05;;;;;;;241.42;170.25;;;;;;;;;;1720195;82;26380;-45
2022/09/28 04:54:32;;;;;;;231.35;164.85;;;;;;;;;;1728275;81;26285;-44
2022/09/28 04:57:00;;;;;;;229.55;163.68;;;;;;;;;;1723533;82;26360;-51
2022/09/28 04:59:28;;;;;;;224.60;159.57;;;;;;;;;;1727269;82;26367;-49
2022/09/28 05:01:55;;;;;;;213.22;154.68;;;;;;;;;;1727261;83;26277;-47
2022/09/28 05:04:22;;;;;;;207.87;147.32;;;;;;;;;;1727259;81;26325;-43
2022/09/28 05:06:50;;;;;;;197.70;140.12;;;;;;;;;;1726700;82;26249;-51
2022/09/28 05:09:17;;;;;;;189.47;135.55;;;;;;;;;;1726166;81;26728;-48
2022/09/28 05:11:44;;;;;;;186.37;133.00;;;;;;;;;;1736266;81;26780;-46
2022/09/28 05:14:11;;;;;;;180.52;128.85;;;;;;;;;;1740049;81;26744;-43
2022/09/28 05:16:39;;;;;;;167.80;121.75;;;;;;;;;;1730059;82;27369;-51
2022/09/28 05:19:06;;;;;;;166.57;118.62;;;;;;;;;;1726108;83;26726;-48
2022/09/28 05:21:33;;;;;;;158.60;112.72;;;;;;;;;;1715666;82;26752;-48
2022/09/28 05:24:06;;;;;;;153.95;109.37;;;;;;;;;;1726389;81;26355;-48
2022/09/28 05:26:30;;;;;;;147.90;106.27;;;;;;;;;;1723183;82;26761;-45
2022/09/28 05:28:57;;;;;;;142.75;100.95;;;;;;;;;;1729297;81;26921;-51
2022/09/28 05:31:26;;;;;;;130.45;94.45;;;;;;;;;;1728468;82;26766;-50
2022/09/28 05:33:53;;;;;;;93.17;65.50;;;;;;;;;;1723974;82;26776;-53
2022/09/28 05:36:21;;;;;;;92.22;63.68;;;;;;;;;;1725682;82;26296;-50
2022/09/28 05:38:48;;;;;;;92.45;60.75;;;;;;;;;;1724424;82;26348;-46
2022/09/28 05:41:15;;;;;;;89.90;59.45;;;;;;;;;;1722609;81;26423;-51
2022/09/28 05:43:44;;;;;;;80.15;55.50;;;;;;;;;;1729599;81;26359;-44
2022/09/28 05:46:11;;;;;;;78.12;53.92;;;;;;;;;;1723084;82;27090;-47
2022/09/28 05:48:39;;;;;;;68.17;48.63;;;;;;;;;;1713504;83;26757;-51
2022/09/28 05:51:06;;;;;;;68.83;48.58;;;;;;;;;;1710058;83;27576;-51
2022/09/28 05:53:33;;;;;;;71.22;48.65;;;;;;;;;;1714618;83;26778;-48
2022/09/28 05:56:01;;;;;;;64.72;46.83;;;;;;;;;;1712639;83;26731;-48
2022/09/28 05:58:28;;;;;;;64.40;45.95;;;;;;;;;;1705968;83;26321;-46
2022/09/28 06:00:56;;;;;;;63.68;44.88;;;;;;;;;;1710787;83;26289;-52
2022/09/28 06:03:23;;;;;;;58.75;43.55;;;;;;;;;;1699227;83;26290;-49
2022/09/28 06:05:51;;;;;;;60.33;42.85;;;;;;;;;;1697622;82;26771;-50
2022/09/28 06:08:18;;;;;;;57.62;40.80;;;;;;;;;;1700895;83;26912;-45
2022/09/28 06:10:45;;;;;;;55.67;39.63;;;;;;;;;;1698697;82;26987;-45
2022/09/28 06:13:13;;;;;;;53.23;38.53;;;;;;;;;;1717788;83;26300;-49
2022/09/28 06:15:42;;;;;;;51.35;37.58;;;;;;;;;;1714055;83;26817;-50
2022/09/28 06:18:13;;;;;;;48.75;35.38;;;;;;;;;;1711463;82;27531;-52
2022/09/28 06:20:40;;;;;;;46.85;34.80;;;;;;;;;;1713946;82;26360;-47
2022/09/28 06:23:08;;;;;;;47.93;33.30;;;;;;;;;;1718935;82;26887;-52
2022/09/28 06:25:36;;;;;;;46.08;31.80;;;;;;;;;;1710031;83;26264;-50
2022/09/28 06:28:04;;;;;;;44.80;30.45;;;;;;;;;;1709924;83;26294;-47
2022/09/28 06:30:33;;;;;;;39.95;29.77;;;;;;;;;;1706515;83;26334;-51
2022/09/28 06:33:01;;;;;;;37.53;27.98;;;;;;;;;;1710873;83;26282;-46
2022/09/28 06:35:29;;;;;;;33.58;24.92;;;;;;;;;;1705000;83;26246;-50
2022/09/28 06:37:57;;;;;;;37.63;25.77;;;;;;;;;;1721417;82;26270;-47
2022/09/28 06:40:24;;;;;;;35.85;24.35;;;;;;;;;;1700958;83;26253;-45
2022/09/28 06:42:59;;;;;;;31.33;21.90;;;;;;;;;;1709004;83;26601;-48
2022/09/28 06:45:28;;;;;;;31.93;21.68;;;;;;;;;;1703532;83;26285;-44
2022/09/28 06:47:56;;;;;;;31.70;20.72;;;;;;;;;;1716335;83;26915;-54
2022/09/28 06:50:25;;;;;;;31.00;21.45;;;;;;;;;;1714648;83;26332;-51
2022/09/28 06:52:52;;;;;;;33.13;21.00;;;;;;;;;;1707706;83;26751;-54
2022/09/28 06:55:20;;;;;;;26.82;20.32;;;;;;;;;;1706601;83;26302;-47
2022/09/28 06:57:47;;;;;;;29.10;20.15;;;;;;;;;;1704268;83;26301;-49
2022/09/28 07:00:15;;;;;;;31.40;19.45;;;;;;;;;;1706440;82;26739;-50
2022/09/28 07:02:42;;;;;;;25.70;18.98;;;;;;;;;;1706472;82;26289;-49
2022/09/28 07:05:11;;;;;;;24.43;17.75;;;;;;;;;;1703179;83;26320;-50
2022/09/28 07:07:41;;;;;;;26.42;18.50;;;;;;;;;;1706745;82;26333;-50
2022/09/28 07:10:09;;;;;;;25.30;16.67;;;;;;;;;;1706150;83;26327;-49
2022/09/28 07:12:38;;;;;;;22.37;15.80;;;;;;;;;;1702865;83;26356;-50
2022/09/28 07:15:07;;;;;;;20.92;15.93;;;;;;;;;;1701079;83;26300;-45
2022/09/28 07:17:35;;;;;;;25.45;15.00;;;;;;;;;;1718823;82;26416;-49
2022/09/28 07:20:04;;;;;;;21.17;13.72;;;;;;;;;;1736300;82;26426;-44
2022/09/28 07:22:31;;;;;;;18.00;13.15;;;;;;;;;;1736171;82;27840;-49
2022/09/28 07:24:59;;;;;;;21.30;13.18;;;;;;;;;;1738759;82;26734;-44
2022/09/28 07:27:26;;;;;;;19.35;11.97;;;;;;;;;;1738542;82;26357;-52
2022/09/28 07:29:54;;;;;;;17.98;12.28;;;;;;;;;;1735550;82;26394;-50
2022/09/28 07:32:21;;;;;;;16.40;11.55;;;;;;;;;;1738153;82;26286;-44
2022/09/28 07:34:48;;;;;;;20.88;11.22;;;;;;;;;;1738143;82;26826;-49
2022/09/28 07:37:17;;;;;;;18.20;10.80;;;;;;;;;;1736798;82;26743;-47
2022/09/28 07:42:31;;;;;;;15.83;9.78;;;;;;;;;;1739137;82;26379;-44
2022/09/28 07:44:58;;;;;;;12.80;9.00;;;;;;;;;;1733982;82;26329;-46
2022/09/28 07:47:26;;;;;;;16.57;8.78;;;;;;;;;;1735221;81;26844;-47
2022/09/28 07:49:55;;;;;;;16.30;8.85;;;;;;;;;;1731994;82;26369;-52
2022/09/28 07:52:27;;;;;;;13.38;8.15;;;;;;;;;;1731059;82;26345;-47
2022/09/28 07:54:55;;;;;;;11.75;7.97;;;;;;;;;;1728715;82;26408;-49
2022/09/28 07:57:22;;;;;;;9.38;7.28;;;;;;;;;;1737147;82;26299;-45
2022/09/28 07:59:52;;;;;;;12.37;7.90;;;;;;;;;;1735399;81;26778;-47
2022/09/28 08:02:20;;;;;;;9.38;7.08;;;;;;;;;;1727147;82;26368;-57
2022/09/28 08:04:48;;;;;;;9.50;6.97;;;;;;;;;;1728024;82;26326;-60
2022/09/28 08:07:16;;;;;;;12.73;6.92;;;;;;;;;;1735477;82;26628;-51
2022/09/28 08:09:44;;;;;;;12.73;6.95;;;;;;;;;;1738196;81;26478;-49
2022/09/28 08:12:12;;;;;;;9.75;6.60;;;;;;;;;;1736447;82;26346;-47
2022/09/28 08:14:40;;;;;;;9.45;6.10;;;;;;;;;;1737947;82;26274;-48
2022/09/28 08:17:07;;;;;;;10.35;6.12;;;;;;;;;;1737015;82;26871;-52
2022/09/28 08:22:20;;;;;;;9.05;5.53;;;;;;;;;;1739065;82;26394;-51
2022/09/28 08:24:48;;;;;;;10.78;5.67;;;;;;;;;;1737737;82;26790;-48
2022/09/28 08:27:15;;;;;;;7.58;5.28;;;;;;;;;;1734407;82;26400;-46
2022/09/28 08:29:43;;;;;;;7.42;4.95;;;;;;;;;;1731414;81;26809;-44
2022/09/28 08:32:10;;;;;;;7.05;5.00;;;;;;;;;;1735077;81;26805;-45
2022/09/28 08:34:39;;;;;;;5.62;4.80;;;;;;;;;;1738396;81;26275;-59
2022/09/28 08:37:12;;;;;;;4.60;4.17;;;;;;;;;;1734125;82;26290;-44
2022/09/28 08:39:36;;;;;;;5.45;4.45;;;;;;;;;;1737725;82;26299;-47
2022/09/28 08:42:05;;;;;;;4.90;4.40;;;;;;;;;;1738808;82;26337;-46
2022/09/28 08:44:34;;;;;;;4.47;3.87;;;;;;;;;;1737340;82;26354;-51
2022/09/28 08:47:03;;;;;;;4.50;3.55;;;;;;;;;;1730277;81;26387;-51
2022/09/28 08:49:38;;;;;;;4.53;3.60;;;;;;;;;;1753841;82;26270;-48
2022/09/28 08:52:19;;;;;;;6.87;3.50;;;;;;;;;;1752191;80;26774;-56
2022/09/28 08:54:55;;;;;;;3.30;3.10;;;;;;;;;;1753020;82;26629;-56
2022/09/28 08:57:26;;;;;;;3.83;3.08;;;;;;;;;;1750541;80;26333;-53
2022/09/28 08:59:55;;;;;;;3.12;2.90;;;;;;;;;;1749391;82;26337;-51
2022/09/28 09:02:24;;;;;;;3.33;3.05;;;;;;;;;;1751760;82;26266;-55
2022/09/28 09:04:51;;;;;;;2.90;2.67;;;;;;;;;;1750194;82;26655;-50
2022/09/28 09:07:23;;;;;;;3.67;2.70;;;;;;;;;;1745813;82;26251;-48
2022/09/28 09:09:58;;;;;;;2.77;2.52;;;;;;;;;;1751885;81;26227;-52
2022/09/28 09:12:27;;;;;;;2.77;2.50;;;;;;;;;;1747509;82;26322;-44
2022/09/28 09:14:58;;;;;;;2.40;2.20;;;;;;;;;;1752874;82;26357;-52
2022/09/28 09:17:27;;;;;;;2.42;2.22;;;;;;;;;;1750902;81;26330;-47
2022/09/28 09:20:12;;;;;;;2.10;2.00;;;;;;;;;;1752569;82;26369;-48
2022/09/28 09:22:41;;;;;;;2.10;2.00;;;;;;;;;;1751140;82;26274;-45
2022/09/28 09:25:19;;;;;;;2.10;2.00;;;;;;;;;;1751714;80;26330;-54
2022/09/28 09:27:51;;;;;;;2.00;1.90;;;;;;;;;;1752241;82;26751;-54
2022/09/28 09:30:25;;;;;;;2.27;2.08;;;;;;;;;;1754445;81;26806;-54
2022/09/28 09:33:09;;;;;;;2.10;1.67;;;;;;;;;;1744992;82;26235;-54
2022/09/28 09:35:38;;;;;;;1.90;1.75;;;;;;;;;;1745692;82;26322;-49
2022/09/28 09:38:10;;;;;;;2.00;1.60;;;;;;;;;;1743021;82;26294;-46
2022/09/28 09:40:56;;;;;;;1.80;1.70;;;;;;;;;;1739548;81;26302;-60
2022/09/28 09:43:31;;;;;;;1.80;1.70;;;;;;;;;;1750435;81;26302;-47
2022/09/28 09:46:11;;;;;;;2.00;1.90;;;;;;;;;;1753911;82;26314;-47
2022/09/28 09:48:58;;;;;;;2.70;2.17;;;;;;;;;;1735247;81;26359;-44
2022/09/28 09:51:30;;;;;;;2.85;2.08;;;;;;;;;;1726656;82;26606;-51
2022/09/28 09:53:59;;;;;;;5.47;2.12;;;;;;;;;;1727811;82;26309;-51
2022/09/28 09:56:34;;;;;;;3.67;2.10;;;;;;;;;;1722809;82;26806;-46
2022/09/28 09:59:03;;;;;;;2.15;1.95;;;;;;;;;;1726166;82;27448;-54
2022/09/28 10:01:32;;;;;;;2.50;2.00;;;;;;;;;;1728230;82;26285;-54
2022/09/28 10:04:00;;;;;;;3.00;2.30;;;;;;;;;;1725909;82;26806;-48
2022/09/28 10:06:34;;;;;;;2.83;2.55;;;;;;;;;;1727012;82;26372;-54
2022/09/28 10:09:06;;;;;;;6.28;2.55;;;;;;;;;;1725592;82;26394;-50
2022/09/28 10:11:38;;;;;;;3.00;2.50;;;;;;;;;;1726401;82;26351;-48
2022/09/28 10:14:07;;;;;;;2.85;2.60;;;;;;;;;;1726977;82;26390;-56
2022/09/28 10:16:34;;;;;;;6.62;2.70;;;;;;;;;;1727344;82;26246;-50
2022/09/28 10:19:02;;;;;;;3.58;2.40;;;;;;;;;;1727001;82;26441;-57
2022/09/28 10:21:30;;;;;;;4.65;2.85;;;;;;;;;;1729722;82;26736;-53
2022/09/28 10:23:59;;;;;;;3.72;2.50;;;;;;;;;;1727624;82;26414;-55
2022/09/28 10:26:37;;;;;;;4.67;2.40;;;;;;;;;;1726271;82;26314;-52
2022/09/28 10:29:06;;;;;;;3.40;2.22;;;;;;;;;;1726253;82;26048;-52
2022/09/28 10:31:40;;;;;;;3.30;2.55;;;;;;;;;;1728227;82;26287;-55
2022/09/28 10:34:09;;;;;;;3.47;2.35;;;;;;;;;;1723525;82;26303;-48
2022/09/28 10:36:47;;;;;;;4.15;2.40;;;;;;;;;;1724851;82;26807;-47
2022/09/28 10:39:25;;;;;;;6.55;2.42;;;;;;;;;;1714063;82;26402;-50
2022/09/28 10:41:53;;;;;;;6.28;2.40;;;;;;;;;;1728555;81;25992;-53
2022/09/28 10:44:21;;;;;;;4.47;2.40;;;;;;;;;;1727076;82;26324;-49
2022/09/28 10:46:55;;;;;;;2.70;2.08;;;;;;;;;;1729913;82;26779;-48
2022/09/28 10:49:23;;;;;;;4.45;1.98;;;;;;;;;;1740723;81;26350;-45
2022/09/28 10:51:53;;;;;;;5.17;1.90;;;;;;;;;;1744345;81;26278;-57
2022/09/28 10:54:22;;;;;;;2.33;2.05;;;;;;;;;;1750839;81;26771;-50
2022/09/28 10:56:50;;;;;;;1.85;1.75;;;;;;;;;;1751918;81;26775;-52
2022/09/28 10:59:31;;;;;;;2.00;1.75;;;;;;;;;;1751101;80;26442;-56
2022/09/28 11:01:59;;;;;;;1.95;1.60;;;;;;;;;;1749503;81;26383;-50
2022/09/28 11:04:28;;;;;;;2.92;1.70;;;;;;;;;;1750204;82;26298;-48
2022/09/28 11:07:01;;;;;;;2.50;1.87;;;;;;;;;;1752352;80;26794;-51
2022/09/28 11:09:29;;;;;;;2.17;1.70;;;;;;;;;;1748502;81;26334;-52
2022/09/28 11:12:01;;;;;;;1.95;1.40;;;;;;;;;;1750829;81;26344;-47
2022/09/28 11:14:39;;;;;;;1.55;1.42;;;;;;;;;;1747045;81;26270;-45
2022/09/28 11:17:25;;;;;;;3.27;1.55;;;;;;;;;;1748912;82;26357;-49
2022/09/28 11:19:54;;;;;;;2.95;1.65;;;;;;;;;;1750573;81;26318;-47
2022/09/28 11:22:27;;;;;;;1.77;1.45;;;;;;;;;;1748392;81;26316;-54
2022/09/28 11:25:13;;;;;;;2.20;1.40;;;;;;;;;;1747876;82;26921;-51
2022/09/28 11:27:40;;;;;;;1.75;1.47;;;;;;;;;;1752566;82;26394;-49
2022/09/28 11:30:09;;;;;;;2.33;1.30;;;;;;;;;;1748745;81;26310;-50
2022/09/28 11:32:40;;;;;;;1.30;1.20;;;;;;;;;;1748458;81;26337;-47
2022/09/28 11:35:09;;;;;;;1.75;1.25;;;;;;;;;;1753232;82;26341;-51
2022/09/28 11:37:41;;;;;;;2.08;1.20;;;;;;;;;;1750336;81;26372;-45
2022/09/28 11:40:13;;;;;;;1.20;1.10;;;;;;;;;;1749988;81;26852;-49
2022/09/28 11:42:42;;;;;;;1.20;1.20;;;;;;;;;;1752895;81;26558;-49
2022/09/28 11:45:11;;;;;;;1.30;1.22;;;;;;;;;;1753276;81;26307;-49
2022/09/28 11:47:43;;;;;;;1.45;1.10;;;;;;;;;;1751062;82;26345;-56
2022/09/28 11:50:18;;;;;;;1.20;1.05;;;;;;;;;;1742797;82;26862;-49
2022/09/28 11:53:03;;;;;;;1.75;0.93;;;;;;;;;;1752539;82;26614;-48
2022/09/28 11:55:32;;;;;;;0.90;0.90;;;;;;;;;;1750529;81;26680;-48
2022/09/28 11:58:01;;;;;;;1.20;1.10;;;;;;;;;;1752381;81;26837;-47
2022/09/28 12:00:30;;;;;;;1.02;1.02;;;;;;;;;;1749024;80;26789;-48
2022/09/28 12:03:02;;;;;;;0.90;0.90;;;;;;;;;;1752983;82;27327;-50
2022/09/28 12:05:33;;;;;;;1.05;1.05;;;;;;;;;;1749696;81;26286;-48
2022/09/28 12:08:05;;;;;;;1.00;1.00;;;;;;;;;;1752268;82;27324;-49
2022/09/28 12:10:34;;;;;;;1.02;0.93;;;;;;;;;;1748378;81;26299;-48
2022/09/28 12:13:15;;;;;;;0.90;0.90;;;;;;;;;;1752699;81;26832;-47
2022/09/28 12:15:49;;;;;;;0.90;0.90;;;;;;;;;;1750344;81;26928;-53
2022/09/28 12:18:24;;;;;;;0.90;0.90;;;;;;;;;;1748412;82;26363;-45
2022/09/28 12:20:53;;;;;;;1.75;0.80;;;;;;;;;;1744807;82;26954;-50
2022/09/28 12:23:23;;;;;;;0.90;0.90;;;;;;;;;;1747199;80;26668;-44
2022/09/28 12:25:51;;;;;;;0.90;0.90;;;;;;;;;;1748476;81;26294;-50
2022/09/28 12:28:26;;;;;;;0.90;0.90;;;;;;;;;;1743208;81;26384;-44
2022/09/28 12:30:54;;;;;;;0.70;0.70;;;;;;;;;;1750118;82;26360;-50
2022/09/28 12:33:21;;;;;;;0.70;0.70;;;;;;;;;;1750486;80;26844;-48
2022/09/28 12:35:53;;;;;;;0.72;0.72;;;;;;;;;;1749686;82;26734;-48
2022/09/28 12:38:24;;;;;;;0.82;0.80;;;;;;;;;;1749282;82;26462;-54
2022/09/28 12:40:53;;;;;;;0.75;0.75;;;;;;;;;;1749233;81;26302;-53
2022/09/28 12:43:34;;;;;;;0.80;0.80;;;;;;;;;;1747287;81;26699;-53
2022/09/28 12:46:06;;;;;;;0.70;0.70;;;;;;;;;;1750528;82;26350;-50
2022/09/28 12:48:47;;;;;;;1.10;0.80;;;;;;;;;;1742441;81;28401;-46
2022/09/28 12:51:35;;;;;;;0.80;0.80;;;;;;;;;;1722957;82;28388;-55
2022/09/28 12:54:09;;;;;;;0.90;0.90;;;;;;;;;;1727059;82;28369;-53
2022/09/28 12:56:38;;;;;;;2.35;0.80;;;;;;;;;;1725351;82;26999;-59
2022/09/28 12:59:13;;;;;;;0.80;0.80;;;;;;;;;;1710337;82;28845;-51
2022/09/28 13:01:45;;;;;;;0.80;0.80;;;;;;;;;;1735468;82;26778;-45
2022/09/28 13:04:13;;;;;;;3.00;0.70;;;;;;;;;;1738124;82;28000;-50
2022/09/28 13:06:42;;;;;;;0.72;0.72;;;;;;;;;;1733392;82;26617;-57
2022/09/28 13:09:12;;;;;;;0.70;0.70;;;;;;;;;;1737046;82;26551;-46
2022/09/28 13:11:40;;;;;;;0.70;0.70;;;;;;;;;;1735961;82;26343;-50
2022/09/28 13:14:26;;;;;;;0.65;0.65;;;;;;;;;;1738602;82;26282;-49
2022/09/28 13:16:55;;;;;;;0.70;0.70;;;;;;;;;;1735566;82;26291;-49
2022/09/28 13:19:24;;;;;;;0.50;0.50;;;;;;;;;;1736881;82;26384;-46
2022/09/28 13:21:58;;;;;;;0.65;0.65;;;;;;;;;;1738663;82;26401;-45
2022/09/28 13:24:27;;;;;;;72.72;55.23;;;;;;;;;;1738442;82;26295;-50
2022/09/28 13:26:56;;;;;;;84.13;65.00;;;;;;;;;;1736588;82;25802;-48
2022/09/28 13:29:25;;;;;;;86.67;66.35;;;;;;;;;;1736687;82;26290;-47
2022/09/28 13:31:57;;;;;;;94.87;72.22;;;;;;;;;;1739962;82;26778;-50
2022/09/28 13:34:29;;;;;;;102.78;80.38;;;;;;;;;;1735072;82;26358;-51
2022/09/28 13:37:16;;;;;;;113.92;88.90;;;;;;;;;;1734369;82;26746;-52
2022/09/28 13:39:50;;;;;;;134.57;99.35;;;;;;;;;;1736892;82;26275;-50
2022/09/28 13:42:29;;;;;;;145.02;108.05;;;;;;;;;;1736510;82;26738;-48
2022/09/28 13:45:10;;;;;;;152.78;111.32;;;;;;;;;;1735839;82;26213;-52
2022/09/28 13:47:45;;;;;;;162.07;117.97;;;;;;;;;;1737721;82;26306;-47
2022/09/28 13:50:24;;;;;;;168.52;120.67;;;;;;;;;;1742967;81;26904;-53
2022/09/28 13:52:53;;;;;;;167.30;120.53;;;;;;;;;;1742668;82;26348;-46
2022/09/28 13:55:22;;;;;;;177.93;128.23;;;;;;;;;;1753877;81;26325;-44
2022/09/28 13:57:57;;;;;;;121.30;83.97;;;;;;;;;;1750365;82;26849;-48
2022/09/28 14:00:26;;;;;;;56.25;41.42;;;;;;;;;;1748222;82;26393;-45
2022/09/28 14:02:55;;;;;;;57.25;42.78;;;;;;;;;;1752338;81;26423;-48
2022/09/28 14:05:26;;;;;;;55.52;42.60;;;;;;;;;;1750264;80;26728;-46
2022/09/28 14:08:11;;;;;;;52.75;39.48;;;;;;;;;;1749800;81;26679;-54
2022/09/28 14:10:50;;;;;;;52.35;38.65;;;;;;;;;;1747860;82;26352;-49
2022/09/28 14:13:37;;;;;;;51.33;36.23;;;;;;;;;;1750755;81;26633;-45
2022/09/28 14:16:19;;;;;;;46.45;33.48;;;;;;;;;;1738398;82;26248;-46
2022/09/28 14:18:51;;;;;;;43.55;31.68;;;;;;;;;;1754168;80;26358;-46
2022/09/28 14:21:22;;;;;;;40.83;30.30;;;;;;;;;;1740364;81;26359;-46
2022/09/28 14:23:54;;;;;;;38.48;29.12;;;;;;;;;;1725199;82;26285;-46
2022/09/28 14:26:25;;;;;;;36.25;27.98;;;;;;;;;;1723928;83;26242;-49
2022/09/28 14:28:57;;;;;;;33.95;26.23;;;;;;;;;;1721522;83;26308;-44
2022/09/28 14:31:26;;;;;;;33.75;26.70;;;;;;;;;;1718842;81;28391;-52
2022/09/28 14:33:56;;;;;;;30.72;24.10;;;;;;;;;;1725058;82;26392;-48
2022/09/28 14:42:04;;;;;;;28.47;21.42;;;;;;;;;;1724810;82;26604;-49
2022/09/28 14:44:33;;;;;;;25.70;19.45;;;;;;;;;;1725223;81;26296;-51
2022/09/28 14:47:20;;;;;;;24.37;19.20;;;;;;;;;;1723512;81;26313;-51
2022/09/28 14:49:49;;;;;;;23.50;18.15;;;;;;;;;;1730349;82;26328;-55